This is the latest recevied weather packets stored in our database for station/object KQ5S-13. If no packets are shown the sender has not sent any weather packets the latest 10 day(s).
| Time | Temp. | Humidity | Pressure | Rain* | Wind** | Luminosity | Snow |
|---|---|---|---|---|---|---|---|
| 1777945817 | 17.78° C | 61% | 1013.6 hPa | 0 mm | - | 0 W/m² | - |
| 1777944616 | 18.33° C | 61% | 1013.5 hPa | 0 mm | - | 0 W/m² | - |
| 1777938057 | 22.78° C | 45% | 1012.6 hPa | 0 mm | - | 26 W/m² | - |
| 1777930216 | 25° C | 45% | 1013.4 hPa | 0 mm | - | 325 W/m² | - |
| 1777926036 | 23.89° C | 47% | 1013.7 hPa | 0 mm | - | 75 W/m² | - |
| 1777923616 | 23.89° C | 45% | 1014.2 hPa | 0 mm | - | 102 W/m² | - |
| 1777922416 | 23.89° C | 49% | 1014.6 hPa | 0 mm | - | 162 W/m² | - |
| 1777918816 | 23.33° C | 50% | 1015.5 hPa | 0 mm | - | 129 W/m² | - |
| 1777914015 | 23.33° C | 50% | 1016.6 hPa | 0 mm | - | 1014 W/m² | - |
| 1777911616 | 22.78° C | 51% | 1017.1 hPa | 0 mm | - | 992 W/m² | - |
| 1777911015 | 22.78° C | 49% | 1017.2 hPa | 0 mm | - | 974 W/m² | - |
| 1777909817 | 22.78° C | 48% | 1017.3 hPa | 0 mm | - | 935 W/m² | - |
| 1777906817 | 21.11° C | 53% | 1017.3 hPa | 0 mm | - | 815 W/m² | - |
| 1777902617 | 18.33° C | 59% | 1017.8 hPa | 0 mm | - | 640 W/m² | - |
| 1777898417 | 12.22° C | 84% | 1017.6 hPa | 0 mm | - | 341 W/m² | - |
| 1777897217 | 9.44° C | 94% | 1017.3 hPa | 0 mm | - | 302 W/m² | - |
| 1777896017 | 7.78° C | 93% | 1017.1 hPa | 0 mm | - | 201 W/m² | - |
| 1777893637 | 6.67° C | 91% | 1016.8 hPa | 0 mm | - | 31 W/m² | - |
| 1777891217 | 6.11° C | 91% | 1016.6 hPa | 0 mm | - | 0 W/m² | - |
| 1777888817 | 6.11° C | 90% | 1016.6 hPa | 0 mm | - | 0 W/m² | - |
| 1777887017 | 6.67° C | 90% | 1016.7 hPa | 0 mm | - | 0 W/m² | - |
| 1777884617 | 6.67° C | 90% | 1016.5 hPa | 0 mm | - | 0 W/m² | - |
| 1777884017 | 6.67° C | 89% | 1016.5 hPa | 0 mm | - | 0 W/m² | - |
| 1777882837 | 6.67° C | 88% | 1016.4 hPa | 0 mm | - | 0 W/m² | - |
| 1777880416 | 6.67° C | 88% | 1016.8 hPa | 0 mm | - | 0 W/m² | - |
* Rain latest hour (hover to see other rain measurements)
** Current wind speed in m/s (hover to see current wind gust speed)